LSZB/BRN METAR and TAF weather

Enter ICAO airport designator
Station Type Date Time Source
LSZB METAR 2019/06/19 00:50 UTC NOAA

LSZB 190050Z AUTO 10005KT 080V140 CAVOK 16/13 Q1014


Station Type Date Time Source
LSZB Decoded METAR 2019/06/19 00:50 UTC NOAA

Bern / Belp , Switzerland (LSZB) 46-55N 007-30E
Jun 18, 2019 - 08:50 PM EDT / 2019.06.19 0050 UTC
Wind: from the E (100 degrees) at 6 MPH (5 KT) (direction variable):0
Visibility: greater than 7 mile(s):0
Temperature: 60 F (16 C)
Dew Point: 55 F (13 C)
Relative Humidity: 82%
Pressure (altimeter): 29.94 in. Hg (1014 hPa)
ob: LSZB 190050Z AUTO 10005KT 080V140 CAVOK 16/13 Q1014
cycle: 1

Station Type Date Time Source
LSZB TAF 2014/12/22 20:03 UTC NOAA

TAF
AMD TAF
AMD LSZB 222054Z 2220/2224 CNL

Example: see airport list